Time;durP1;ratioP1;P1;durP2;ratioP2;P2;SDS_P1;SDS_P2;PMS_P1;PMS_P2;Temp;Humidity;BMP_temperature;BMP_pressure;BME280_temperature;BME280_humidity;BME280_pressure;Samples;Min_cycle;Max_cycle;Signal;HPM_P1;HPM_P2
2022/05/20 00:00:50;;;;;;;4.72;1.52;;;13.90;76.10;;;;;;5030025;28;21842;-72
2022/05/20 00:03:18;;;;;;;3.78;1.63;;;13.80;76.60;;;;;;5034376;28;20045;-71
2022/05/20 00:05:45;;;;;;;5.82;1.20;;;13.90;77.40;;;;;;5037079;28;20466;-72
2022/05/20 00:08:12;;;;;;;5.40;1.77;;;13.80;76.90;;;;;;5034582;28;20136;-71
2022/05/20 00:10:39;;;;;;;6.68;1.67;;;13.80;76.10;;;;;;5032948;28;20052;-71
2022/05/20 00:13:07;;;;;;;6.30;1.88;;;13.70;76.10;;;;;;5050682;28;20132;-71
2022/05/20 00:15:34;;;;;;;3.60;1.55;;;13.70;76.30;;;;;;5053699;28;20045;-71
2022/05/20 00:18:02;;;;;;;4.25;1.55;;;13.70;77.10;;;;;;5037484;28;20477;-72
2022/05/20 00:20:30;;;;;;;8.60;1.70;;;13.70;75.70;;;;;;5035487;28;20048;-72
2022/05/20 00:22:57;;;;;;;7.22;1.58;;;13.60;75.30;;;;;;5036178;28;20051;-71
2022/05/20 00:28:11;;;;;;;2.97;1.42;;;13.70;76.00;;;;;;5033135;28;20061;-71
2022/05/20 00:30:38;;;;;;;7.32;1.50;;;13.60;76.60;;;;;;5049365;28;20052;-71
2022/05/20 00:33:06;;;;;;;4.25;1.05;;;13.50;75.00;;;;;;5032449;28;20128;-71
2022/05/20 00:35:33;;;;;;;6.95;1.98;;;13.50;75.50;;;;;;5037022;28;20064;-72
2022/05/20 00:38:00;;;;;;;4.57;1.35;;;13.60;75.90;;;;;;5034471;28;20163;-71
2022/05/20 00:40:28;;;;;;;2.83;1.20;;;13.50;75.20;;;;;;5017671;28;20038;-71
2022/05/20 00:43:29;;;;;;;5.13;1.40;;;13.50;75.00;;;;;;5032459;28;20128;-71
2022/05/20 00:46:14;;;;;;;4.30;1.73;;;13.50;76.10;;;;;;5030916;28;20090;-71
2022/05/20 00:48:42;;;;;;;2.47;1.20;;;13.50;76.00;;;;;;5039580;28;20041;-71
2022/05/20 00:51:31;;;;;;;2.70;0.95;;;13.50;75.80;;;;;;5031084;28;20056;-72
2022/05/20 00:54:00;;;;;;;4.15;1.23;;;13.50;74.50;;;;;;5035943;28;20040;-72
2022/05/20 00:56:38;;;;;;;2.58;1.20;;;13.50;74.10;;;;;;5065914;28;20041;-72
2022/05/20 00:59:12;;;;;;;3.33;1.58;;;13.30;73.30;;;;;;5034719;28;20091;-72
2022/05/20 01:01:40;;;;;;;5.05;1.65;;;13.30;73.60;;;;;;5033444;28;20506;-71
2022/05/20 01:04:07;;;;;;;3.50;1.20;;;13.20;73.30;;;;;;5036327;28;20412;-71
2022/05/20 01:06:34;;;;;;;3.97;1.25;;;13.20;73.70;;;;;;5037553;28;20041;-72
2022/05/20 01:09:01;;;;;;;3.35;1.45;;;13.20;74.50;;;;;;5033558;28;20041;-71
2022/05/20 01:11:29;;;;;;;4.68;1.70;;;13.20;74.90;;;;;;5037700;28;20041;-71
2022/05/20 01:13:56;;;;;;;3.67;1.83;;;13.30;74.30;;;;;;5049981;28;20066;-71
2022/05/20 01:16:23;;;;;;;4.82;1.25;;;13.20;74.30;;;;;;5032603;28;20504;-72
2022/05/20 01:18:53;;;;;;;5.55;1.65;;;13.20;75.10;;;;;;5032207;28;20118;-72
2022/05/20 01:21:21;;;;;;;6.22;1.98;;;13.20;76.30;;;;;;5032947;28;20041;-71
2022/05/20 01:23:48;;;;;;;5.57;1.70;;;13.10;74.80;;;;;;5033930;28;20403;-71
2022/05/20 01:26:15;;;;;;;4.80;1.50;;;13.10;75.20;;;;;;5050262;28;20048;-71
2022/05/20 01:28:42;;;;;;;3.97;1.38;;;13.10;76.40;;;;;;5034550;28;20052;-72
2022/05/20 01:31:14;;;;;;;3.58;1.77;;;13.00;77.20;;;;;;5032016;28;20053;-72
2022/05/20 01:33:43;;;;;;;2.30;1.25;;;13.00;75.80;;;;;;5034182;28;20029;-71
2022/05/20 01:36:19;;;;;;;5.68;1.80;;;13.00;76.50;;;;;;5035841;28;20055;-72
2022/05/20 01:38:47;;;;;;;4.20;1.73;;;13.00;75.90;;;;;;5034359;28;20045;-71
2022/05/20 01:41:33;;;;;;;4.75;1.65;;;12.90;75.70;;;;;;5048400;28;20439;-71
2022/05/20 01:44:20;;;;;;;2.55;1.38;;;12.80;76.20;;;;;;5033917;28;20053;-71
2022/05/20 01:47:11;;;;;;;5.40;2.20;;;12.80;76.30;;;;;;5031914;28;20069;-72
2022/05/20 01:50:12;;;;;;;5.45;1.77;;;12.90;78.00;;;;;;5034135;28;20037;-71
2022/05/20 01:53:23;;;;;;;4.55;1.52;;;12.80;77.50;;;;;;5030174;28;20057;-71
2022/05/20 01:55:59;;;;;;;15.52;2.25;;;12.70;78.00;;;;;;5015873;28;20065;-71
2022/05/20 01:58:45;;;;;;;4.28;1.63;;;12.70;78.10;;;;;;5030321;28;20041;-71
2022/05/20 02:01:23;;;;;;;4.90;1.50;;;12.70;77.60;;;;;;5032193;28;20044;-72
2022/05/20 02:03:56;;;;;;;3.80;1.33;;;12.60;77.90;;;;;;5033428;28;20136;-71
2022/05/20 02:06:27;;;;;;;7.53;1.48;;;12.60;77.80;;;;;;5038512;28;20149;-71
2022/05/20 02:09:07;;;;;;;3.92;1.50;;;12.60;78.60;;;;;;5042983;28;20723;-71
2022/05/20 02:11:48;;;;;;;6.20;1.83;;;12.50;79.40;;;;;;5038142;28;20044;-71
2022/05/20 02:14:41;;;;;;;3.88;2.00;;;12.50;79.20;;;;;;5035160;28;20099;-71
2022/05/20 02:17:35;;;;;;;8.40;2.70;;;12.50;78.20;;;;;;5039236;28;20040;-71
2022/05/20 02:20:11;;;;;;;4.82;1.60;;;12.50;78.80;;;;;;5052737;28;20052;-71
2022/05/20 02:22:44;;;;;;;4.38;1.38;;;12.40;79.00;;;;;;5035442;28;20039;-71
2022/05/20 02:25:17;;;;;;;4.28;1.50;;;12.40;79.60;;;;;;5037242;28;20484;-71
2022/05/20 02:27:50;;;;;;;3.28;1.45;;;12.40;80.00;;;;;;5037443;28;20064;-72
2022/05/20 02:30:21;;;;;;;3.42;1.40;;;12.40;79.50;;;;;;5035348;28;20076;-71
2022/05/20 02:32:57;;;;;;;5.43;1.58;;;12.40;79.60;;;;;;5018017;28;20045;-71
2022/05/20 02:35:24;;;;;;;3.75;1.60;;;12.30;79.80;;;;;;5037922;28;20045;-71
2022/05/20 02:38:07;;;;;;;4.97;1.60;;;12.30;80.70;;;;;;5035487;28;20059;-71
2022/05/20 02:40:35;;;;;;;5.55;1.60;;;12.30;80.80;;;;;;5033554;28;20048;-71
2022/05/20 02:43:02;;;;;;;6.82;1.90;;;12.30;81.30;;;;;;5036469;28;20492;-71
2022/05/20 02:45:30;;;;;;;4.05;1.77;;;12.20;80.40;;;;;;5034400;28;20499;-71
2022/05/20 02:47:57;;;;;;;6.32;1.95;;;12.20;80.50;;;;;;5037588;28;20052;-71
2022/05/20 02:50:24;;;;;;;3.67;1.83;;;12.20;80.60;;;;;;5053355;28;20060;-72
2022/05/20 02:52:51;;;;;;;4.03;2.03;;;12.20;81.50;;;;;;5035381;28;20048;-72
2022/05/20 02:55:19;;;;;;;3.47;1.85;;;12.20;81.50;;;;;;5040393;28;20037;-71
2022/05/20 02:57:46;;;;;;;2.97;1.67;;;12.10;81.30;;;;;;5049614;28;20056;-72
2022/05/20 03:05:45;;;;;;;6.38;2.10;;;12.10;81.70;;;;;;5036685;28;20107;-71
2022/05/20 03:08:13;;;;;;;3.25;1.75;;;12.00;82.50;;;;;;5038284;28;20048;-71
2022/05/20 03:10:40;;;;;;;4.93;1.75;;;12.10;82.10;;;;;;5019125;28;20584;-72
2022/05/20 03:13:08;;;;;;;3.70;1.63;;;12.10;80.60;;;;;;5034328;28;20049;-71
2022/05/20 03:15:39;;;;;;;7.30;2.00;;;12.00;80.40;;;;;;5035121;28;20045;-71
2022/05/20 03:18:11;;;;;;;4.05;1.90;;;12.10;81.20;;;;;;5051606;28;20045;-72
2022/05/20 03:20:41;;;;;;;4.40;1.92;;;12.00;80.90;;;;;;5037442;28;20047;-72
2022/05/20 03:23:12;;;;;;;5.20;1.63;;;12.10;81.40;;;;;;5037630;28;20132;-71
2022/05/20 03:25:39;;;;;;;5.18;1.95;;;12.10;80.40;;;;;;5034056;28;20033;-71
2022/05/20 03:28:11;;;;;;;4.43;1.92;;;12.00;81.10;;;;;;5053474;28;20495;-71
2022/05/20 03:30:38;;;;;;;4.35;2.08;;;12.10;82.40;;;;;;5037900;28;20055;-71
2022/05/20 03:33:05;;;;;;;4.85;1.85;;;12.00;81.70;;;;;;5035975;28;20415;-71
2022/05/20 03:35:32;;;;;;;4.28;2.22;;;12.10;83.00;;;;;;5034689;28;20040;-71
2022/05/20 03:37:59;;;;;;;6.13;2.10;;;12.10;82.40;;;;;;5037244;28;20033;-71
2022/05/20 03:40:26;;;;;;;5.47;2.30;;;12.10;83.10;;;;;;5036121;28;20041;-71
2022/05/20 03:42:53;;;;;;;6.13;2.08;;;12.10;82.50;;;;;;5020113;28;20040;-71
2022/05/20 03:45:21;;;;;;;3.90;1.73;;;12.10;82.60;;;;;;5036751;28;20056;-72
2022/05/20 03:47:48;;;;;;;5.82;2.47;;;12.10;82.50;;;;;;5035571;28;20040;-72
2022/05/20 03:50:14;;;;;;;5.13;2.10;;;12.10;83.30;;;;;;5033606;28;20040;-71
2022/05/20 03:52:41;;;;;;;6.60;2.20;;;12.20;83.10;;;;;;5034279;28;20061;-71
2022/05/20 03:55:08;;;;;;;6.20;2.40;;;12.20;82.40;;;;;;5038252;28;20041;-71
2022/05/20 03:57:35;;;;;;;9.98;2.63;;;12.20;82.60;;;;;;5052620;28;20077;-72
2022/05/20 04:00:04;;;;;;;6.57;2.40;;;12.20;80.70;;;;;;5034891;28;20662;-71
2022/05/20 04:02:37;;;;;;;5.72;1.98;;;12.20;80.00;;;;;;5030461;28;20548;-72
2022/05/20 04:05:04;;;;;;;8.10;2.63;;;12.30;81.70;;;;;;5051407;28;20136;-71
2022/05/20 04:07:32;;;;;;;6.45;1.77;;;12.30;81.20;;;;;;5036255;28;21056;-71
2022/05/20 04:10:01;;;;;;;10.98;2.72;;;12.40;81.50;;;;;;5036465;28;20064;-72
2022/05/20 04:12:43;;;;;;;5.90;2.88;;;12.40;80.40;;;;;;5047597;28;22033;-71
2022/05/20 04:15:14;;;;;;;7.03;2.33;;;12.40;80.00;;;;;;5035443;28;20116;-71
2022/05/20 04:17:41;;;;;;;6.78;1.85;;;12.50;80.60;;;;;;5034335;28;20033;-72
2022/05/20 04:20:09;;;;;;;10.40;2.30;;;12.50;80.70;;;;;;5034350;28;20051;-72
2022/05/20 04:22:38;;;;;;;6.32;2.38;;;12.50;81.10;;;;;;5035749;28;20102;-71
2022/05/20 04:25:06;;;;;;;4.95;2.47;;;12.40;79.80;;;;;;5038299;28;20055;-71
2022/05/20 04:27:33;;;;;;;8.05;2.13;;;12.60;81.00;;;;;;5036763;28;20053;-72
2022/05/20 04:30:01;;;;;;;6.15;2.72;;;12.70;79.80;;;;;;5028354;28;20059;-72
2022/05/20 04:32:28;;;;;;;5.35;2.13;;;12.80;78.90;;;;;;5040383;28;20063;-71
2022/05/20 04:34:55;;;;;;;8.77;2.25;;;12.80;80.50;;;;;;5051620;28;20060;-71
2022/05/20 04:37:25;;;;;;;6.93;2.15;;;12.80;79.70;;;;;;5033219;28;20094;-71
2022/05/20 04:39:53;;;;;;;12.70;2.45;;;12.90;80.30;;;;;;5020661;28;20033;-73
2022/05/20 04:47:52;;;;;;;7.50;2.85;;;13.20;77.90;;;;;;5036885;28;20040;-71
2022/05/20 04:50:19;;;;;;;10.88;2.70;;;13.40;76.80;;;;;;5046976;28;20057;-72
2022/05/20 04:52:46;;;;;;;6.68;2.33;;;13.50;77.70;;;;;;5023812;28;20083;-72
2022/05/20 04:55:13;;;;;;;5.90;2.50;;;13.50;77.10;;;;;;5033534;28;20033;-71
2022/05/20 04:57:49;;;;;;;6.55;2.45;;;13.60;75.50;;;;;;5036338;28;20037;-71
2022/05/20 05:00:22;;;;;;;6.25;2.55;;;13.60;75.10;;;;;;5031093;28;20488;-72
2022/05/20 05:02:51;;;;;;;5.25;2.10;;;13.80;75.50;;;;;;4997795;28;20507;-72
2022/05/20 05:05:23;;;;;;;8.65;2.30;;;13.80;75.50;;;;;;4998783;28;22296;-71
2022/05/20 05:07:52;;;;;;;6.97;2.47;;;13.90;77.50;;;;;;5001767;28;20056;-71
2022/05/20 05:10:25;;;;;;;6.80;2.33;;;13.90;77.70;;;;;;4999353;28;20041;-73
2022/05/20 05:12:52;;;;;;;;;;;13.90;79.40;;;;;;5010326;28;20090;-71
2022/05/20 05:15:20;;;;;;;7.68;2.50;;;14.00;77.70;;;;;;4996740;28;22423;-72
2022/05/20 05:20:34;;;;;;;5.38;2.20;;;14.10;77.80;;;;;;5000928;28;20044;-72
2022/05/20 05:23:02;;;;;;;14.57;2.70;;;14.20;75.10;;;;;;5005325;28;20128;-72
2022/05/20 05:25:33;;;;;;;6.55;2.40;;;14.40;77.50;;;;;;5003062;28;20053;-72
2022/05/20 05:28:01;;;;;;;5.63;2.13;;;14.70;75.50;;;;;;4999398;28;20048;-72
2022/05/20 05:30:28;;;;;;;7.03;2.40;;;14.90;72.60;;;;;;5016528;28;20040;-72
2022/05/20 05:32:55;;;;;;;7.85;2.70;;;15.10;73.40;;;;;;5014613;28;20049;-73
2022/05/20 05:35:25;;;;;;;9.70;2.70;;;15.20;72.40;;;;;;5003384;28;20041;-73
2022/05/20 05:37:53;;;;;;;13.10;3.08;;;15.50;71.10;;;;;;5018352;28;22353;-72
2022/05/20 05:40:24;;;;;;;6.93;2.70;;;15.60;71.80;;;;;;5017201;28;20041;-72
2022/05/20 05:42:51;;;;;;;7.25;2.65;;;15.80;72.80;;;;;;5017724;28;20056;-73
2022/05/20 05:45:21;;;;;;;7.82;2.92;;;15.90;71.10;;;;;;5022741;28;20057;-73
2022/05/20 05:47:58;;;;;;;9.60;2.50;;;16.10;72.40;;;;;;5007380;28;20049;-74
2022/05/20 05:50:27;;;;;;;7.10;2.47;;;16.10;70.70;;;;;;5002967;28;20060;-73
2022/05/20 05:52:56;;;;;;;9.13;2.28;;;16.20;68.50;;;;;;5018844;28;20063;-73
2022/05/20 05:55:23;;;;;;;6.45;2.03;;;16.30;69.60;;;;;;5006692;28;20045;-73
2022/05/20 05:57:51;;;;;;;7.70;2.75;;;16.40;68.90;;;;;;5000691;28;20044;-73
2022/05/20 06:00:19;;;;;;;12.55;2.75;;;16.60;69.20;;;;;;5003788;28;20302;-73
2022/05/20 06:02:46;;;;;;;6.45;1.85;;;16.80;69.80;;;;;;5001642;28;20049;-73
2022/05/20 06:05:14;;;;;;;10.25;2.50;;;17.10;68.50;;;;;;5025643;28;20056;-73
2022/05/20 06:07:42;;;;;;;5.25;1.80;;;17.30;68.10;;;;;;5010764;28;20062;-73
2022/05/20 06:10:09;;;;;;;6.22;2.47;;;17.50;66.80;;;;;;5005683;28;20053;-73
2022/05/20 06:12:36;;;;;;;8.90;1.67;;;17.50;67.40;;;;;;4988032;28;20708;-72
2022/05/20 06:15:09;;;;;;;6.00;2.08;;;17.60;67.30;;;;;;5039438;28;20088;-73
2022/05/20 06:17:36;;;;;;;6.65;1.88;;;17.70;66.50;;;;;;5012769;28;20060;-73
2022/05/20 06:20:04;;;;;;;6.93;2.35;;;17.80;66.20;;;;;;5026651;28;20052;-73
2022/05/20 06:22:31;;;;;;;4.20;2.15;;;17.90;66.40;;;;;;5010930;28;20041;-73
2022/05/20 06:24:58;;;;;;;7.07;2.05;;;17.90;65.10;;;;;;5002988;28;22553;-73
2022/05/20 06:27:26;;;;;;;4.80;2.55;;;18.00;66.90;;;;;;5010969;28;20081;-74
2022/05/20 06:29:53;;;;;;;9.73;3.25;;;18.00;65.90;;;;;;5042102;28;20053;-73
2022/05/20 06:32:20;;;;;;;6.47;2.33;;;18.10;65.30;;;;;;5022311;28;20056;-73
2022/05/20 06:40:21;;;;;;;5.45;1.90;;;18.70;63.50;;;;;;5011517;28;23810;-73
2022/05/20 06:42:48;;;;;;;6.32;1.95;;;19.00;63.60;;;;;;5010898;28;20163;-74
2022/05/20 06:45:16;;;;;;;11.27;2.50;;;18.80;64.30;;;;;;5012761;28;20052;-74
2022/05/20 06:47:43;;;;;;;6.95;2.53;;;18.90;63.00;;;;;;5010118;28;20085;-72
2022/05/20 06:50:12;;;;;;;11.95;2.67;;;19.20;62.00;;;;;;5015792;28;20052;-74
2022/05/20 06:52:39;;;;;;;8.55;2.30;;;19.40;63.20;;;;;;5028660;28;20049;-73
2022/05/20 06:55:08;;;;;;;8.60;2.58;;;19.60;61.20;;;;;;5028753;28;20054;-73
2022/05/20 06:57:39;;;;;;;13.15;3.00;;;19.70;62.40;;;;;;5020880;28;20070;-74
2022/05/20 07:00:11;;;;;;;5.78;1.80;;;19.90;61.50;;;;;;5012172;28;22420;-72
2022/05/20 07:02:40;;;;;;;7.55;2.10;;;20.10;61.50;;;;;;5019287;28;20132;-73
2022/05/20 07:05:09;;;;;;;8.70;3.00;;;20.20;59.30;;;;;;5034725;28;20053;-74
2022/05/20 07:07:37;;;;;;;6.47;1.98;;;19.80;61.40;;;;;;5031089;28;20064;-73
2022/05/20 07:10:06;;;;;;;5.70;3.00;;;19.70;61.90;;;;;;5032511;28;21178;-74
2022/05/20 07:12:34;;;;;;;7.10;3.22;;;19.50;61.00;;;;;;5014080;28;20059;-73
2022/05/20 07:15:02;;;;;;;10.50;3.50;;;19.50;61.70;;;;;;5017661;28;20049;-74
2022/05/20 07:17:35;;;;;;;11.77;4.18;;;19.50;62.90;;;;;;5019481;28;20045;-74
2022/05/20 07:20:04;;;;;;;10.30;4.15;;;19.40;62.00;;;;;;5010339;28;22317;-73
2022/05/20 07:22:31;;;;;;;13.73;5.00;;;19.50;63.60;;;;;;5025798;28;20045;-73
2022/05/20 07:24:58;;;;;;;16.70;5.22;;;19.50;61.80;;;;;;5011566;28;20860;-74
2022/05/20 07:27:25;;;;;;;12.07;5.82;;;19.50;62.20;;;;;;5020856;28;22473;-74
2022/05/20 07:29:52;;;;;;;12.85;5.75;;;19.40;63.00;;;;;;5021495;28;20269;-74
2022/05/20 07:32:20;;;;;;;10.20;5.50;;;19.30;62.60;;;;;;5046791;28;20053;-74
2022/05/20 07:34:48;;;;;;;12.07;5.47;;;19.20;64.60;;;;;;5039228;28;20052;-74
2022/05/20 07:37:15;;;;;;;16.20;5.75;;;19.10;66.00;;;;;;5014425;28;20751;-73
2022/05/20 07:39:42;;;;;;;12.57;5.25;;;19.10;64.70;;;;;;5012105;28;20055;-74
2022/05/20 07:42:09;;;;;;;10.68;4.72;;;19.20;66.30;;;;;;5044313;28;22442;-74
2022/05/20 07:44:37;;;;;;;9.57;4.63;;;19.40;64.30;;;;;;5009618;28;20045;-73
2022/05/20 07:47:04;;;;;;;9.07;4.13;;;19.30;66.60;;;;;;5011692;28;20051;-74
2022/05/20 07:49:31;;;;;;;11.13;4.40;;;19.30;63.30;;;;;;5015815;28;20059;-74
2022/05/20 07:52:02;;;;;;;9.27;4.07;;;19.40;66.00;;;;;;5012886;28;20056;-73
2022/05/20 07:54:32;;;;;;;15.48;4.22;;;19.60;65.80;;;;;;5011053;28;20095;-73
2022/05/20 07:57:03;;;;;;;15.13;5.38;;;19.90;62.50;;;;;;5002910;28;20056;-73
2022/05/20 07:59:37;;;;;;;18.48;4.32;;;20.40;61.50;;;;;;5011826;28;20044;-73
2022/05/20 08:02:04;;;;;;;20.60;4.68;;;20.80;62.10;;;;;;5003819;28;20065;-74
2022/05/20 08:04:53;;;;;;;9.00;3.10;;;21.10;59.90;;;;;;5002749;28;20053;-75
2022/05/20 08:07:33;;;;;;;5.70;2.10;;;21.40;57.30;;;;;;5009143;28;20064;-74
2022/05/20 08:10:13;;;;;;;5.15;1.75;;;21.50;54.90;;;;;;5008823;28;20091;-74
2022/05/20 08:12:40;;;;;;;5.47;1.73;;;21.60;54.10;;;;;;5007381;28;20081;-75
2022/05/20 08:15:09;;;;;;;6.25;1.35;;;21.80;55.90;;;;;;5011022;28;20041;-74
2022/05/20 08:17:40;;;;;;;2.70;1.10;;;21.90;54.80;;;;;;5047936;28;20076;-73
2022/05/20 08:20:10;;;;;;;6.50;1.60;;;22.00;53.80;;;;;;5002433;28;20044;-73
2022/05/20 08:22:37;;;;;;;3.72;1.10;;;22.10;54.00;;;;;;5008769;28;20040;-74
2022/05/20 08:25:05;;;;;;;4.97;1.45;;;22.10;54.40;;;;;;5007169;28;22479;-74
2022/05/20 08:27:33;;;;;;;12.38;3.30;;;22.20;52.50;;;;;;5052601;28;22448;-74
2022/05/20 08:30:14;;;;;;;3.10;0.95;;;22.30;54.00;;;;;;5001812;28;20049;-74
2022/05/20 08:32:41;;;;;;;2.75;0.90;;;22.40;54.90;;;;;;5011490;28;20055;-73
2022/05/20 08:35:09;;;;;;;4.35;1.23;;;22.50;54.10;;;;;;5012418;28;20041;-73
2022/05/20 08:37:39;;;;;;;3.50;1.27;;;22.50;54.50;;;;;;5013953;28;20045;-73
2022/05/20 08:40:24;;;;;;;3.05;1.45;;;22.60;54.90;;;;;;5035425;28;22413;-73
2022/05/20 08:42:55;;;;;;;8.68;1.75;;;22.70;56.10;;;;;;5008601;28;20061;-75
2022/05/20 08:45:26;;;;;;;7.90;2.65;;;22.80;53.50;;;;;;5030609;28;20703;-74
2022/05/20 08:47:53;;;;;;;4.03;1.73;;;22.90;54.80;;;;;;5004265;28;20056;-76
2022/05/20 08:50:35;;;;;;;5.55;2.25;;;23.00;55.90;;;;;;5024709;28;20045;-74
2022/05/20 08:53:06;;;;;;;8.68;1.75;;;23.00;55.20;;;;;;5010954;28;22405;-73
2022/05/20 08:55:33;;;;;;;9.88;2.20;;;23.00;54.10;;;;;;5016316;28;20136;-73
2022/05/20 08:58:03;;;;;;;5.18;1.33;;;23.00;55.80;;;;;;5036207;28;20159;-74
2022/05/20 09:00:31;;;;;;;4.88;2.05;;;23.10;54.40;;;;;;5019508;28;20037;-74
2022/05/20 09:02:59;;;;;;;5.53;1.27;;;23.20;54.20;;;;;;5023449;28;20055;-74
2022/05/20 09:05:33;;;;;;;4.60;1.30;;;23.30;56.70;;;;;;5022141;28;20626;-74
2022/05/20 09:08:24;;;;;;;3.60;1.90;;;23.40;53.80;;;;;;5018371;28;20087;-74
2022/05/20 09:10:54;;;;;;;3.40;1.00;;;23.40;54.50;;;;;;5035195;28;22278;-75
2022/05/20 09:16:19;;;;;;;4.15;1.00;;;23.40;52.40;;;;;;5009724;28;20115;-75
2022/05/20 09:18:49;;;;;;;4.65;0.80;;;23.50;54.40;;;;;;5029402;28;20053;-75
2022/05/20 09:21:32;;;;;;;6.22;0.90;;;23.60;52.50;;;;;;5044193;28;20274;-75
2022/05/20 09:24:04;;;;;;;5.68;0.73;;;23.60;53.00;;;;;;5036051;28;20432;-76
2022/05/20 09:26:38;;;;;;;6.57;0.80;;;23.60;53.60;;;;;;5024713;28;20052;-74
2022/05/20 09:29:21;;;;;;;3.40;1.00;;;23.70;53.70;;;;;;5022367;28;20128;-79
2022/05/20 09:32:26;;;;;;;2.72;0.90;;;23.80;52.60;;;;;;5035633;28;20041;-74
2022/05/20 09:35:11;;;;;;;2.08;0.73;;;23.80;52.20;;;;;;5052862;28;20045;-75
2022/05/20 09:37:42;;;;;;;3.08;0.75;;;23.80;50.90;;;;;;5032104;28;20503;-77
2022/05/20 09:40:15;;;;;;;2.17;0.60;;;23.70;50.40;;;;;;5036672;28;20076;-75
2022/05/20 09:43:28;;;;;;;4.88;0.90;;;23.70;52.20;;;;;;5040942;28;22057;-76
2022/05/20 09:46:00;;;;;;;4.47;0.90;;;23.80;51.10;;;;;;5066870;28;22559;-76
2022/05/20 09:48:40;;;;;;;3.33;0.77;;;23.80;51.10;;;;;;5036462;28;22454;-77
2022/05/20 09:51:30;;;;;;;6.47;0.68;;;23.80;53.40;;;;;;5054963;28;20461;-75
2022/05/20 09:54:12;;;;;;;2.17;0.55;;;23.90;51.40;;;;;;5035350;28;20776;-76
2022/05/20 09:56:58;;;;;;;4.20;0.85;;;23.90;52.60;;;;;;5032454;28;20056;-78
2022/05/20 10:00:07;;;;;;;3.83;0.80;;;24.10;52.30;;;;;;5053592;28;20045;-77
2022/05/20 10:02:46;;;;;;;3.78;0.73;;;24.10;53.00;;;;;;5036115;28;20049;-75
2022/05/20 10:05:28;;;;;;;3.60;0.63;;;24.20;52.10;;;;;;5040877;28;20519;-75
2022/05/20 10:08:07;;;;;;;3.17;0.77;;;24.20;50.80;;;;;;5039542;28;20140;-76
2022/05/20 10:10:40;;;;;;;6.50;1.00;;;24.20;53.30;;;;;;5038468;28;20045;-76
2022/05/20 10:13:25;;;;;;;2.35;0.70;;;24.30;52.80;;;;;;5038625;28;20418;-78
2022/05/20 10:16:03;;;;;;;3.30;0.88;;;24.40;52.80;;;;;;5032601;28;20041;-77
2022/05/20 10:18:47;;;;;;;2.55;0.70;;;24.50;52.00;;;;;;5055678;28;20052;-77
2022/05/20 10:21:38;;;;;;;1.52;0.60;;;24.40;52.70;;;;;;5039429;28;20116;-78
2022/05/20 10:24:28;;;;;;;2.40;1.05;;;24.60;52.20;;;;;;5026151;28;20068;-77
2022/05/20 10:27:04;;;;;;;2.75;0.65;;;24.50;51.10;;;;;;5054545;28;20099;-76
2022/05/20 10:32:49;;;;;;;2.67;1.00;;;24.70;51.30;;;;;;5054165;28;20111;-77
2022/05/20 10:35:20;;;;;;;2.13;0.73;;;24.80;53.30;;;;;;5035735;28;20131;-76
2022/05/20 10:38:28;;;;;;;2.60;1.00;;;24.70;50.30;;;;;;5041270;28;20045;-75
2022/05/20 10:41:25;;;;;;;5.50;1.10;;;24.80;52.10;;;;;;4971522;28;20137;-75
2022/05/20 10:50:10;;;;;;;5.35;0.85;;;24.90;51.40;;;;;;5039352;28;20049;-78
2022/05/20 10:52:52;;;;;;;2.05;0.70;;;25.00;51.60;;;;;;5029955;28;20156;-78
2022/05/20 10:55:40;;;;;;;3.85;0.90;;;25.00;51.60;;;;;;5052979;28;20061;-75
2022/05/20 10:58:46;;;;;;;1.98;1.08;;;25.00;53.00;;;;;;5019925;28;20478;-76
2022/05/20 11:01:51;;;;;;;3.67;1.55;;;25.00;52.50;;;;;;4981034;28;20052;-74
2022/05/20 11:04:33;;;;;;;4.55;0.88;;;25.10;51.80;;;;;;4970337;28;20845;-74
2022/05/20 11:07:30;;;;;;;4.78;0.90;;;25.10;50.80;;;;;;5019100;28;20060;-74
2022/05/20 11:10:18;;;;;;;1.27;0.70;;;25.10;51.80;;;;;;5004085;28;20056;-75
2022/05/20 11:13:24;;;;;;;2.30;1.00;;;25.20;52.40;;;;;;5030741;28;20057;-73
2022/05/20 11:15:58;;;;;;;3.80;0.80;;;25.30;52.00;;;;;;4981202;28;20076;-74
2022/05/20 11:18:46;;;;;;;3.15;1.00;;;25.40;52.10;;;;;;5014993;28;20052;-74
2022/05/20 11:21:42;;;;;;;2.88;1.35;;;25.50;52.50;;;;;;5036281;28;20286;-74
2022/05/20 11:24:46;;;;;;;3.50;0.60;;;25.60;51.50;;;;;;5012941;28;20098;-73
2022/05/20 11:27:33;;;;;;;5.25;1.58;;;25.60;51.00;;;;;;5020070;28;20060;-73
2022/05/20 11:30:10;;;;;;;3.00;1.00;;;25.60;51.80;;;;;;5004680;28;20053;-73
2022/05/20 11:32:53;;;;;;;2.42;0.93;;;25.70;49.90;;;;;;5011607;28;20059;-73
2022/05/20 11:35:59;;;;;;;3.33;1.25;;;25.70;52.50;;;;;;5015356;28;20048;-75
2022/05/20 11:38:26;;;;;;;5.22;1.15;;;25.80;52.60;;;;;;5008011;28;22396;-73
2022/05/20 11:41:06;;;;;;;4.63;1.23;;;25.80;52.00;;;;;;5027694;28;20447;-74
2022/05/20 11:44:13;;;;;;;2.13;0.90;;;25.90;52.10;;;;;;4992572;28;20049;-73
2022/05/20 11:46:49;;;;;;;2.33;0.80;;;25.90;51.10;;;;;;4999802;28;22021;-73
2022/05/20 11:49:35;;;;;;;1.80;0.85;;;26.10;51.20;;;;;;5021636;28;20056;-73
2022/05/20 11:52:14;;;;;;;7.18;0.90;;;26.00;50.60;;;;;;5007819;28;20138;-72
2022/05/20 11:54:49;;;;;;;3.55;1.25;;;26.10;51.60;;;;;;5008344;28;22412;-72
2022/05/20 11:57:38;;;;;;;2.97;1.20;;;25.90;51.40;;;;;;5011732;28;22438;-74
2022/05/20 12:00:13;;;;;;;2.03;1.15;;;25.90;51.40;;;;;;5010560;28;20063;-73
2022/05/20 12:03:03;;;;;;;5.75;1.00;;;25.90;51.50;;;;;;5003589;28;21515;-73
2022/05/20 12:05:36;;;;;;;6.35;1.20;;;25.90;51.30;;;;;;5013270;28;21109;-73
2022/05/20 12:08:03;;;;;;;2.50;1.05;;;26.00;52.20;;;;;;5004437;28;20053;-72
2022/05/20 12:10:30;;;;;;;6.00;1.30;;;26.00;51.40;;;;;;5011763;28;20045;-73
2022/05/20 12:13:15;;;;;;;3.20;1.33;;;26.00;52.00;;;;;;5004631;28;20045;-72
2022/05/20 12:15:44;;;;;;;3.00;1.27;;;26.00;50.40;;;;;;5004025;28;20046;-74
2022/05/20 12:24:26;;;;;;;3.58;1.08;;;26.00;51.40;;;;;;5033409;28;20088;-75
2022/05/20 12:26:55;;;;;;;2.63;1.30;;;26.00;52.20;;;;;;5008157;28;20262;-72
2022/05/20 12:29:34;;;;;;;3.08;1.20;;;26.10;51.10;;;;;;5019190;28;20052;-72
2022/05/20 12:32:41;;;;;;;3.20;1.20;;;26.20;51.60;;;;;;5008310;28;20052;-73
2022/05/20 12:35:30;;;;;;;3.28;1.15;;;26.20;50.10;;;;;;5032051;28;21117;-73
2022/05/20 12:38:24;;;;;;;4.85;1.30;;;26.10;52.30;;;;;;5007987;28;20045;-75
2022/05/20 12:40:54;;;;;;;4.57;1.40;;;26.10;50.80;;;;;;5007916;28;20593;-72
2022/05/20 12:43:43;;;;;;;6.20;1.67;;;26.20;50.60;;;;;;5029386;28;20049;-74
2022/05/20 12:46:17;;;;;;;4.60;1.67;;;26.30;52.80;;;;;;5054566;28;20083;-74
2022/05/20 12:48:44;;;;;;;9.48;1.45;;;26.20;50.90;;;;;;5020038;28;20053;-74
2022/05/20 12:51:11;;;;;;;4.38;1.50;;;26.20;51.10;;;;;;5021386;28;22698;-76
2022/05/20 12:53:38;;;;;;;3.92;1.40;;;26.30;52.50;;;;;;5042608;28;20064;-77
2022/05/20 12:56:06;;;;;;;4.30;1.30;;;26.40;52.00;;;;;;5023970;28;20051;-73
2022/05/20 12:58:35;;;;;;;3.55;1.27;;;26.40;51.60;;;;;;5014221;28;20049;-75
2022/05/20 13:01:07;;;;;;;2.67;1.40;;;26.50;52.00;;;;;;5023759;28;20052;-76
2022/05/20 13:03:42;;;;;;;4.50;1.90;;;26.50;51.10;;;;;;5034550;28;20419;-73
2022/05/20 13:06:16;;;;;;;3.03;1.73;;;26.50;50.10;;;;;;5012913;28;20061;-74
2022/05/20 13:08:49;;;;;;;3.03;1.50;;;26.40;50.00;;;;;;5023562;28;20053;-74
2022/05/20 13:11:19;;;;;;;4.05;1.50;;;26.30;52.40;;;;;;5018370;28;20508;-73
2022/05/20 13:13:51;;;;;;;4.90;1.27;;;26.30;51.60;;;;;;5005107;28;20051;-74
2022/05/20 13:16:21;;;;;;;3.70;1.40;;;26.50;52.00;;;;;;4996810;28;20868;-74
2022/05/20 13:19:04;;;;;;;4.22;1.30;;;26.50;50.70;;;;;;5015936;28;20056;-72
2022/05/20 13:21:41;;;;;;;4.05;1.63;;;26.60;50.10;;;;;;5020576;28;20064;-74
2022/05/20 13:24:17;;;;;;;4.97;1.40;;;26.60;51.30;;;;;;5055561;28;20049;-74
2022/05/20 13:26:44;;;;;;;7.53;1.50;;;26.70;52.70;;;;;;4995384;28;20719;-74
2022/05/20 13:29:14;;;;;;;2.75;1.33;;;26.80;50.80;;;;;;5039355;28;22571;-75
2022/05/20 13:31:42;;;;;;;4.50;1.10;;;26.70;53.40;;;;;;5015037;28;20087;-73
2022/05/20 13:34:12;;;;;;;3.92;1.70;;;26.80;51.70;;;;;;5025202;28;20060;-73
2022/05/20 13:36:50;;;;;;;5.25;1.27;;;26.90;51.10;;;;;;5010936;28;20800;-74
2022/05/20 13:39:23;;;;;;;8.73;1.60;;;26.90;50.90;;;;;;5008291;28;22515;-73
2022/05/20 13:41:51;;;;;;;2.63;1.02;;;26.90;52.00;;;;;;5003731;28;20049;-73
2022/05/20 13:44:23;;;;;;;;;;;27.00;50.20;;;;;;5004570;28;20049;-72
2022/05/20 13:49:43;;;;;;;4.13;1.60;;;26.90;50.30;;;;;;5024697;28;20044;-74
2022/05/20 13:52:14;;;;;;;4.43;1.48;;;27.00;50.80;;;;;;5005067;28;20049;-74
2022/05/20 13:55:01;;;;;;;4.05;1.80;;;26.90;50.00;;;;;;5002986;28;22446;-73
2022/05/20 13:57:31;;;;;;;5.82;1.60;;;26.80;51.00;;;;;;5002811;28;20048;-72
2022/05/20 14:00:28;;;;;;;3.08;1.35;;;26.90;51.70;;;;;;5020910;28;20044;-72
2022/05/20 14:02:59;;;;;;;2.80;1.15;;;26.90;50.70;;;;;;4993088;28;20084;-72